Friday, October 24, 2014
11:23 UTC
  |  Log In   |  Register Free
Airport Search:

La Porte Municipal Airport
(T41)

La Porte Municipal Airport Diagram
No Airport Diagram Available

FAA data valid effective September 18, 2014 - November 13, 2014 (unless otherwise noted).

 
 
 
 
 
 
 
 
 
 
 
 
 
 

Current Aviation Weather for La Porte Municipal Airport (T41)

METAR data is unavailable for T41. The nearest METAR location is at KEFD (6.2 nm SW from T41).

The most recent METAR observation for KEFD was updated at: 1109
METAR Summary (Translated METAR)
KEFD
241050Z 35001KT 10SM CLR 16/14 A3013
(6.2 nm SW from T41)
KHOU
241053Z 03003KT 10SM CLR 15/13 A3012 RMK AO2 SLP203 T01500128
(11.3 nm SW from T41)
TAF Summary (Translated TAF)
KEFD
2404/2510 VRB06KT 9999 SKC QNH3007INS TX26/2421Z TN16/2411Z= TAF KGSB 2404/2510 34009KT 9999 FEW250 QNH2989INS TX19/2420Z TN08/2411Z
KHOU
(6.7 nm NW from KEFD)
240858Z 2409/2506 VRB04KT P6SM SKC FM241400 04006KT P6SM SKC
  Airport Weather Conditions for T41

Current weather conditions are
not available for T41


The nearest NOAA weather station
is at EFD, (6.2 nm SW from T41)
  
 Current Weather at EFD
61° F
Fair
North winds at 1.2 mph
EFD NOAA Radar

Pressure: 30.13 in
Humidity: 88%
Wind: North at 1.2 MPH (1 KT)
Dew Point: 57.2°F
Visibility: 10.00 mi


Airport Weather Forecast for T41

Translated METAR and TAF for KEFD
Translated METAR for KEFD (1118 UTC 24 October 2014)
found at http://aviationweather.gov/adds/metars/
 
METAR text: KEFD 241050Z 35001KT 10SM CLR 16/14 A3013
Conditions at: KEFD (HOUSTON/ELLINGTO, TX, US) observed 1050 UTC 24 October 2014
Temperature: 16.0°C (61°F)
Dewpoint: 14.0°C (57°F) [RH = 88%]
Pressure (altimeter): 30.13 inches Hg (1020.4 mb)
Winds: from the N (350 degrees) at 1 MPH (1 knots; 0.5 m/s)
Visibility: 10 or more miles (16+ km)
Ceiling: at least 12,000 feet AGL
Clouds: sky clear below 12,000 feet AGL
Weather: no significant weather observed at this time
Translated TAF for KEFD
Forecast for: KEFD (HOUSTON/ELLINGTO, TX, US)
TAF Text: TAF KEFD 2404/2510 VRB06KT 9999 SKC QNH3007INS TX26/2421Z TN16/2411Z
Forecast period: 0400 UTC 24 October 2014 to 1000 UTC 25 October 2014
Forecast type: FROM: standard forecast or significant change
Winds: variable direction winds at 7 MPH (6 knots; 3.1 m/s)
Visibility: 6 or more miles (10+ km)
Clouds: clear skies
Weather: no significant weather forecast for this period

Find All Airport Services Find A Hotel Find A Rental Car Find A Golf Course Find A Restaurant $100 Hamburger



FBO's on the Field
FBO Company Facility Photos Services Transportation Aviation Fuel Prices: Prices include tax
Catering Weather Repair Courtesy Rental Type 100LL JetA JetA+ MOGAS 8087
 
Harvey & Rihn Aviation

This FBO has not yet been rated
FS:Independent
Last Updated: Oct-06
Login to update fuel prices
SS:
Contact Harvey & Rihn AviationMore FBO Information
 
Tri-Star Aviation

This FBO has not yet been rated
FS:Avfuel
Last Updated: Oct-10
Login to update fuel prices
SS:
Contact Tri-Star AviationMore FBO Information
 
Add another FBO Facility Photos Catering Weather Repair Courtesy Rental Type 100LL JetA JetA+ MOGAS 8087
Services Transportation Aviation Fuel Prices: Prices include tax


model-print
model-print
model-print
model-print